FLX723 MPTO-MTPP
Flight info
| Callsign | FLX723 |
|---|---|
| Flight time | 1h 43m |
| Altitude | 37000 |
| Route | EGETA3A EGETA DCT AGUJA UM597 LIDOL UG444 APLED DCT MESLI MESLI1C |
| Aircraft | B77W/H-SDE1E2E3FGHIJ2J3J4J5M1RWXY/LB1D1 |
Departure
| Time | 2026-05-08 13:02 |
|---|---|
| Airport | Tocumen International Airport (MPTO) |
Arrival
| Time | 2026-05-08 14:45 |
|---|---|
| Airport | Toussaint Louverture International Airport (MTPP) |
| Time | Latitude | Longitude | Altitude | Speed | Heading |
|---|---|---|---|---|---|
| 2026-05-08 12:35 | 9.06368 | -79.38758 | 56 ft | 0 kts | 210° |
| 2026-05-08 12:52 | 9.06369 | -79.38757 | 56 ft | 1 kts | 210° |
| 2026-05-08 12:52 | 9.06398 | -79.38752 | 56 ft | 2 kts | 165° |
| 2026-05-08 12:52 | 9.06412 | -79.38758 | 56 ft | 2 kts | 146° |
| 2026-05-08 12:53 | 9.06423 | -79.38768 | 57 ft | 2 kts | 130° |
| 2026-05-08 12:53 | 9.06425 | -79.38770 | 57 ft | 0 kts | 129° |
| 2026-05-08 12:55 | 9.06418 | -79.38762 | 56 ft | 1 kts | 129° |
| 2026-05-08 12:55 | 9.06409 | -79.38751 | 56 ft | 4 kts | 126° |
| 2026-05-08 12:55 | 9.06386 | -79.38705 | 56 ft | 8 kts | 114° |
| 2026-05-08 12:56 | 9.06355 | -79.38652 | 56 ft | 9 kts | 145° |
| 2026-05-08 12:56 | 9.06281 | -79.38638 | 54 ft | 12 kts | 179° |
| 2026-05-08 12:56 | 9.06191 | -79.38647 | 52 ft | 13 kts | 193° |
| 2026-05-08 12:56 | 9.06098 | -79.38688 | 50 ft | 15 kts | 210° |
| 2026-05-08 12:57 | 9.06005 | -79.38741 | 48 ft | 16 kts | 210° |
| 2026-05-08 12:57 | 9.05907 | -79.38799 | 47 ft | 16 kts | 210° |
| 2026-05-08 12:57 | 9.05803 | -79.38858 | 45 ft | 16 kts | 210° |
| 2026-05-08 12:57 | 9.05703 | -79.38916 | 45 ft | 15 kts | 210° |
| 2026-05-08 12:58 | 9.05610 | -79.38969 | 44 ft | 15 kts | 209° |
| 2026-05-08 12:58 | 9.05517 | -79.39020 | 42 ft | 15 kts | 209° |
| 2026-05-08 12:58 | 9.05422 | -79.39075 | 40 ft | 15 kts | 211° |
| 2026-05-08 12:58 | 9.05328 | -79.39130 | 38 ft | 15 kts | 210° |
| 2026-05-08 12:59 | 9.05237 | -79.39182 | 38 ft | 14 kts | 210° |
| 2026-05-08 12:59 | 9.05154 | -79.39230 | 38 ft | 13 kts | 209° |
| 2026-05-08 12:59 | 9.05074 | -79.39275 | 38 ft | 12 kts | 209° |
| 2026-05-08 12:59 | 9.05001 | -79.39316 | 38 ft | 11 kts | 209° |
| 2026-05-08 13:00 | 9.04928 | -79.39356 | 38 ft | 11 kts | 209° |
| 2026-05-08 13:00 | 9.04852 | -79.39380 | 38 ft | 11 kts | 160° |
| 2026-05-08 13:00 | 9.04803 | -79.39316 | 38 ft | 12 kts | 117° |
| 2026-05-08 13:00 | 9.04805 | -79.39239 | 36 ft | 12 kts | 43° |
| 2026-05-08 13:01 | 9.04885 | -79.39190 | 36 ft | 14 kts | 29° |
| 2026-05-08 13:01 | 9.05125 | -79.39053 | 38 ft | 75 kts | 29° |
| 2026-05-08 13:01 | 9.05805 | -79.38667 | 48 ft | 145 kts | 29° |
| 2026-05-08 13:01 | 9.06789 | -79.38110 | 488 ft | 166 kts | 28° |
| 2026-05-08 13:02 | 9.07760 | -79.37498 | 1277 ft | 170 kts | 37° |
| 2026-05-08 13:02 | 9.08676 | -79.36764 | 1822 ft | 175 kts | 37° |
| 2026-05-08 13:02 | 9.09703 | -79.35970 | 2141 ft | 193 kts | 36° |
| 2026-05-08 13:02 | 9.10816 | -79.35126 | 2546 ft | 208 kts | 36° |
| 2026-05-08 13:03 | 9.12018 | -79.34215 | 3029 ft | 223 kts | 36° |
| 2026-05-08 13:03 | 9.13310 | -79.33235 | 3507 ft | 239 kts | 36° |
| 2026-05-08 13:03 | 9.14673 | -79.32201 | 4133 ft | 249 kts | 37° |
| 2026-05-08 13:03 | 9.16054 | -79.31155 | 4887 ft | 253 kts | 37° |
| 2026-05-08 13:04 | 9.17460 | -79.30087 | 5630 ft | 257 kts | 37° |
| 2026-05-08 13:04 | 9.18917 | -79.28982 | 6289 ft | 263 kts | 38° |
| 2026-05-08 13:04 | 9.20375 | -79.27876 | 7018 ft | 266 kts | 38° |
| 2026-05-08 13:04 | 9.21852 | -79.26756 | 7726 ft | 269 kts | 38° |
| 2026-05-08 13:05 | 9.23363 | -79.25609 | 8413 ft | 273 kts | 38° |
| 2026-05-08 13:05 | 9.24900 | -79.24443 | 9084 ft | 276 kts | 39° |
| 2026-05-08 13:05 | 9.26434 | -79.23279 | 9734 ft | 279 kts | 39° |
| 2026-05-08 13:05 | 9.27986 | -79.22100 | 10350 ft | 284 kts | 39° |
| 2026-05-08 13:06 | 9.29610 | -79.20866 | 10741 ft | 299 kts | 39° |
| 2026-05-08 13:06 | 9.31333 | -79.19558 | 11130 ft | 315 kts | 38° |
| 2026-05-08 13:06 | 9.33135 | -79.18188 | 11549 ft | 331 kts | 38° |
| 2026-05-08 13:06 | 9.35020 | -79.16757 | 11876 ft | 349 kts | 38° |
| 2026-05-08 13:07 | 9.37055 | -79.15211 | 11916 ft | 372 kts | 38° |
| 2026-05-08 13:07 | 9.39132 | -79.13634 | 11915 ft | 379 kts | 38° |
| 2026-05-08 13:07 | 9.41252 | -79.12024 | 11915 ft | 378 kts | 38° |
| 2026-05-08 13:07 | 9.43364 | -79.10420 | 11916 ft | 379 kts | 38° |
| 2026-05-08 13:08 | 9.45465 | -79.08823 | 11915 ft | 379 kts | 38° |
| 2026-05-08 13:08 | 9.47506 | -79.07109 | 11914 ft | 380 kts | 45° |
| 2026-05-08 13:08 | 9.49365 | -79.05128 | 12394 ft | 390 kts | 47° |
| 2026-05-08 13:08 | 9.51189 | -79.03142 | 13443 ft | 385 kts | 47° |
| 2026-05-08 13:09 | 9.52999 | -79.01170 | 14386 ft | 386 kts | 48° |
| 2026-05-08 13:09 | 9.54839 | -78.99165 | 15096 ft | 394 kts | 48° |
| 2026-05-08 13:09 | 9.56720 | -78.97116 | 15854 ft | 401 kts | 48° |
| 2026-05-08 13:09 | 9.58618 | -78.95047 | 16676 ft | 406 kts | 48° |
| 2026-05-08 13:10 | 9.60546 | -78.92946 | 17462 ft | 411 kts | 48° |
| 2026-05-08 13:10 | 9.62513 | -78.90802 | 18173 ft | 417 kts | 48° |
| 2026-05-08 13:10 | 9.64478 | -78.88660 | 18936 ft | 421 kts | 48° |
| 2026-05-08 13:10 | 9.66482 | -78.86475 | 19688 ft | 425 kts | 48° |
| 2026-05-08 13:11 | 9.68520 | -78.84252 | 20405 ft | 429 kts | 48° |
| 2026-05-08 13:11 | 9.70527 | -78.82063 | 21086 ft | 433 kts | 48° |
| 2026-05-08 13:11 | 9.72592 | -78.79810 | 21770 ft | 436 kts | 48° |
| 2026-05-08 13:11 | 9.74678 | -78.77534 | 22411 ft | 440 kts | 48° |
| 2026-05-08 13:12 | 9.76752 | -78.75270 | 22992 ft | 446 kts | 48° |
| 2026-05-08 13:12 | 9.78880 | -78.72947 | 23581 ft | 451 kts | 48° |
| 2026-05-08 13:12 | 9.81035 | -78.70594 | 24157 ft | 457 kts | 48° |
| 2026-05-08 13:12 | 9.83200 | -78.68230 | 24780 ft | 461 kts | 48° |
| 2026-05-08 13:13 | 9.85384 | -78.65844 | 25386 ft | 465 kts | 48° |
| 2026-05-08 13:13 | 9.87593 | -78.63432 | 25959 ft | 470 kts | 48° |
| 2026-05-08 13:13 | 9.89849 | -78.60965 | 26520 ft | 475 kts | 48° |
| 2026-05-08 13:13 | 9.92084 | -78.58523 | 27075 ft | 480 kts | 48° |
| 2026-05-08 13:14 | 9.94370 | -78.56024 | 27642 ft | 485 kts | 47° |
| 2026-05-08 13:14 | 9.96674 | -78.53504 | 28172 ft | 490 kts | 48° |
| 2026-05-08 13:14 | 9.99021 | -78.50938 | 28712 ft | 495 kts | 47° |
| 2026-05-08 13:14 | 10.01369 | -78.48369 | 29308 ft | 498 kts | 47° |
| 2026-05-08 13:15 | 10.03705 | -78.45813 | 30053 ft | 498 kts | 47° |
| 2026-05-08 13:15 | 10.06062 | -78.43233 | 31011 ft | 492 kts | 47° |
| 2026-05-08 13:15 | 10.08352 | -78.40727 | 31952 ft | 487 kts | 47° |
| 2026-05-08 13:15 | 10.10636 | -78.38226 | 32783 ft | 483 kts | 47° |
| 2026-05-08 13:16 | 10.12918 | -78.35726 | 33551 ft | 482 kts | 47° |
| 2026-05-08 13:16 | 10.15212 | -78.33213 | 34256 ft | 482 kts | 47° |
| 2026-05-08 13:16 | 10.17501 | -78.30705 | 35012 ft | 480 kts | 47° |
| 2026-05-08 13:16 | 10.19747 | -78.28244 | 35758 ft | 478 kts | 47° |
| 2026-05-08 13:17 | 10.21999 | -78.25776 | 36421 ft | 476 kts | 47° |
| 2026-05-08 13:17 | 10.24261 | -78.23296 | 36888 ft | 477 kts | 47° |
| 2026-05-08 13:17 | 10.28906 | -78.18201 | 36902 ft | 492 kts | 47° |
| 2026-05-08 13:18 | 10.33635 | -78.13011 | 36899 ft | 498 kts | 47° |
| 2026-05-08 13:18 | 10.38357 | -78.07827 | 36900 ft | 498 kts | 47° |
| 2026-05-08 13:19 | 10.43072 | -78.02648 | 36899 ft | 498 kts | 47° |
| 2026-05-08 13:19 | 10.47761 | -77.97497 | 36897 ft | 499 kts | 47° |
| 2026-05-08 13:20 | 10.52496 | -77.92290 | 36899 ft | 498 kts | 47° |
| 2026-05-08 13:20 | 10.57192 | -77.87125 | 36895 ft | 499 kts | 47° |
| 2026-05-08 13:21 | 10.61928 | -77.81913 | 36890 ft | 499 kts | 47° |
| 2026-05-08 13:21 | 10.66632 | -77.76733 | 36888 ft | 498 kts | 47° |
| 2026-05-08 13:22 | 10.71332 | -77.71556 | 36888 ft | 499 kts | 47° |
| 2026-05-08 13:22 | 10.76074 | -77.66330 | 36891 ft | 499 kts | 47° |
| 2026-05-08 13:23 | 10.80790 | -77.61129 | 36897 ft | 499 kts | 46° |
| 2026-05-08 13:23 | 10.85535 | -77.55895 | 36897 ft | 499 kts | 46° |
| 2026-05-08 13:24 | 10.90227 | -77.50716 | 36895 ft | 500 kts | 46° |
| 2026-05-08 13:24 | 10.94957 | -77.45492 | 36897 ft | 501 kts | 46° |
| 2026-05-08 13:25 | 10.99716 | -77.40250 | 36897 ft | 501 kts | 46° |
| 2026-05-08 13:25 | 11.04529 | -77.35127 | 36894 ft | 501 kts | 45° |
| 2026-05-08 13:26 | 11.09344 | -77.30006 | 36894 ft | 500 kts | 45° |
| 2026-05-08 13:26 | 11.14156 | -77.24878 | 36898 ft | 500 kts | 45° |
| 2026-05-08 13:27 | 11.18965 | -77.19749 | 36897 ft | 501 kts | 46° |
| 2026-05-08 13:27 | 11.23779 | -77.14610 | 36896 ft | 501 kts | 46° |
| 2026-05-08 13:28 | 11.28596 | -77.09462 | 36898 ft | 500 kts | 46° |
| 2026-05-08 13:28 | 11.33412 | -77.04314 | 36904 ft | 501 kts | 46° |
| 2026-05-08 13:29 | 11.38215 | -76.99182 | 36907 ft | 500 kts | 45° |
| 2026-05-08 13:29 | 11.43164 | -76.94203 | 36911 ft | 499 kts | 44° |
| 2026-05-08 13:30 | 11.48149 | -76.89217 | 36906 ft | 499 kts | 44° |
| 2026-05-08 13:30 | 11.53101 | -76.84251 | 36906 ft | 498 kts | 44° |
| 2026-05-08 13:31 | 11.58055 | -76.79275 | 36907 ft | 499 kts | 44° |
| 2026-05-08 13:31 | 11.62992 | -76.74309 | 36905 ft | 498 kts | 44° |
| 2026-05-08 13:32 | 11.67957 | -76.69311 | 36906 ft | 499 kts | 44° |
| 2026-05-08 13:32 | 11.72917 | -76.64315 | 36905 ft | 498 kts | 44° |
| 2026-05-08 13:33 | 11.77839 | -76.59353 | 36904 ft | 499 kts | 44° |
| 2026-05-08 13:33 | 11.82787 | -76.54363 | 36901 ft | 498 kts | 44° |
| 2026-05-08 13:34 | 11.87721 | -76.49384 | 36894 ft | 497 kts | 44° |
| 2026-05-08 13:34 | 11.92661 | -76.44395 | 36894 ft | 498 kts | 44° |
| 2026-05-08 13:35 | 11.97576 | -76.39429 | 36895 ft | 500 kts | 44° |
| 2026-05-08 13:35 | 12.02547 | -76.34404 | 36895 ft | 498 kts | 44° |
| 2026-05-08 13:36 | 12.07495 | -76.29400 | 36895 ft | 499 kts | 44° |
| 2026-05-08 13:36 | 12.12419 | -76.24417 | 36901 ft | 499 kts | 44° |
| 2026-05-08 13:37 | 12.17355 | -76.19419 | 36900 ft | 498 kts | 44° |
| 2026-05-08 13:37 | 12.22296 | -76.14414 | 36902 ft | 499 kts | 44° |
| 2026-05-08 13:38 | 12.27211 | -76.09431 | 36899 ft | 499 kts | 44° |
| 2026-05-08 13:38 | 12.32178 | -76.04394 | 36899 ft | 500 kts | 44° |
| 2026-05-08 13:39 | 12.37100 | -75.99400 | 36909 ft | 499 kts | 44° |
| 2026-05-08 13:39 | 12.42052 | -75.94373 | 36910 ft | 499 kts | 44° |
| 2026-05-08 13:40 | 12.46967 | -75.89381 | 36909 ft | 499 kts | 44° |
| 2026-05-08 13:40 | 12.51928 | -75.84338 | 36908 ft | 499 kts | 44° |
| 2026-05-08 13:41 | 12.56830 | -75.79354 | 36912 ft | 499 kts | 44° |
| 2026-05-08 13:41 | 12.61789 | -75.74308 | 36917 ft | 499 kts | 44° |
| 2026-05-08 13:42 | 12.66718 | -75.69290 | 36923 ft | 500 kts | 44° |
| 2026-05-08 13:42 | 12.71639 | -75.64278 | 36923 ft | 499 kts | 44° |
| 2026-05-08 13:43 | 12.76583 | -75.59238 | 36923 ft | 499 kts | 44° |
| 2026-05-08 13:43 | 12.81502 | -75.54221 | 36923 ft | 499 kts | 44° |
| 2026-05-08 13:44 | 12.86418 | -75.49204 | 36926 ft | 499 kts | 44° |
| 2026-05-08 13:44 | 12.91358 | -75.44161 | 36927 ft | 499 kts | 44° |
| 2026-05-08 13:45 | 12.96248 | -75.39160 | 36928 ft | 499 kts | 44° |
| 2026-05-08 13:45 | 13.01172 | -75.34113 | 36930 ft | 498 kts | 44° |
| 2026-05-08 13:46 | 13.06072 | -75.29087 | 36932 ft | 498 kts | 44° |
| 2026-05-08 13:46 | 13.10972 | -75.24059 | 36934 ft | 497 kts | 45° |
| 2026-05-08 13:47 | 13.15885 | -75.19014 | 36935 ft | 498 kts | 44° |
| 2026-05-08 13:47 | 13.20805 | -75.13963 | 36942 ft | 499 kts | 44° |
| 2026-05-08 13:48 | 13.25721 | -75.08920 | 36946 ft | 499 kts | 44° |
| 2026-05-08 13:48 | 13.30617 | -75.03895 | 36945 ft | 498 kts | 44° |
| 2026-05-08 13:49 | 13.35524 | -74.98856 | 36939 ft | 497 kts | 44° |
| 2026-05-08 13:49 | 13.40400 | -74.93845 | 36939 ft | 498 kts | 44° |
| 2026-05-08 13:50 | 13.45294 | -74.88811 | 36940 ft | 498 kts | 44° |
| 2026-05-08 13:50 | 13.50213 | -74.83750 | 36943 ft | 498 kts | 44° |
| 2026-05-08 13:51 | 13.55135 | -74.78682 | 36942 ft | 499 kts | 44° |
| 2026-05-08 13:51 | 13.60027 | -74.73643 | 36943 ft | 499 kts | 44° |
| 2026-05-08 13:52 | 13.64926 | -74.68592 | 36942 ft | 498 kts | 44° |
| 2026-05-08 13:52 | 13.69847 | -74.63515 | 36943 ft | 498 kts | 44° |
| 2026-05-08 13:53 | 13.74735 | -74.58471 | 36943 ft | 498 kts | 44° |
| 2026-05-08 13:53 | 13.79601 | -74.53445 | 36945 ft | 498 kts | 44° |
| 2026-05-08 13:54 | 13.84494 | -74.48387 | 36945 ft | 498 kts | 44° |
| 2026-05-08 13:54 | 13.89391 | -74.43323 | 36945 ft | 499 kts | 44° |
| 2026-05-08 13:55 | 13.94275 | -74.38270 | 36948 ft | 498 kts | 44° |
| 2026-05-08 13:56 | 14.01634 | -74.30648 | 36948 ft | 499 kts | 44° |
| 2026-05-08 13:56 | 14.06503 | -74.25602 | 36951 ft | 498 kts | 44° |
| 2026-05-08 13:57 | 14.11396 | -74.20527 | 36957 ft | 498 kts | 44° |
| 2026-05-08 13:57 | 14.16287 | -74.15451 | 36961 ft | 498 kts | 44° |
| 2026-05-08 13:58 | 14.21168 | -74.10385 | 36968 ft | 498 kts | 44° |
| 2026-05-08 13:58 | 14.26039 | -74.05328 | 36970 ft | 497 kts | 44° |
| 2026-05-08 13:59 | 14.30922 | -74.00254 | 36973 ft | 499 kts | 44° |
| 2026-05-08 13:59 | 14.35828 | -73.95181 | 36973 ft | 498 kts | 44° |
| 2026-05-08 14:00 | 14.40730 | -73.90120 | 36973 ft | 498 kts | 44° |
| 2026-05-08 14:00 | 14.45622 | -73.85064 | 36973 ft | 498 kts | 44° |
| 2026-05-08 14:01 | 14.50525 | -73.79993 | 36973 ft | 498 kts | 44° |
| 2026-05-08 14:01 | 14.55398 | -73.74948 | 36972 ft | 497 kts | 44° |
| 2026-05-08 14:02 | 14.60294 | -73.69877 | 36971 ft | 498 kts | 44° |
| 2026-05-08 14:02 | 14.65179 | -73.64813 | 36972 ft | 497 kts | 44° |
| 2026-05-08 14:03 | 14.70094 | -73.59715 | 36970 ft | 497 kts | 44° |
| 2026-05-08 14:03 | 14.74961 | -73.54664 | 36970 ft | 497 kts | 44° |
| 2026-05-08 14:04 | 14.79894 | -73.49540 | 36972 ft | 497 kts | 44° |
| 2026-05-08 14:04 | 14.84768 | -73.44475 | 36971 ft | 498 kts | 44° |
| 2026-05-08 14:05 | 14.89707 | -73.39488 | 36972 ft | 496 kts | 42° |
| 2026-05-08 14:05 | 14.94801 | -73.34609 | 36971 ft | 496 kts | 42° |
| 2026-05-08 14:06 | 14.99839 | -73.29766 | 36971 ft | 497 kts | 42° |
| 2026-05-08 14:06 | 15.04946 | -73.24908 | 36966 ft | 496 kts | 38° |
| 2026-05-08 14:07 | 15.10810 | -73.21204 | 36973 ft | 494 kts | 22° |
| 2026-05-08 14:07 | 15.17378 | -73.19064 | 36974 ft | 493 kts | 15° |
| 2026-05-08 14:08 | 15.24011 | -73.17192 | 36978 ft | 493 kts | 15° |
| 2026-05-08 14:08 | 15.30645 | -73.15319 | 36980 ft | 492 kts | 15° |
| 2026-05-08 14:09 | 15.37271 | -73.13447 | 36980 ft | 493 kts | 15° |
| 2026-05-08 14:09 | 15.43885 | -73.11575 | 36982 ft | 492 kts | 15° |
| 2026-05-08 14:10 | 15.50518 | -73.09698 | 36982 ft | 493 kts | 15° |
| 2026-05-08 14:10 | 15.57174 | -73.07812 | 36981 ft | 493 kts | 15° |
| 2026-05-08 14:11 | 15.63772 | -73.05943 | 36987 ft | 492 kts | 15° |
| 2026-05-08 14:11 | 15.70424 | -73.04059 | 36986 ft | 491 kts | 15° |
| 2026-05-08 14:12 | 15.77018 | -73.02190 | 36987 ft | 491 kts | 15° |
| 2026-05-08 14:12 | 15.83628 | -73.00314 | 36993 ft | 492 kts | 15° |
| 2026-05-08 14:13 | 15.90248 | -72.98435 | 37001 ft | 492 kts | 15° |
| 2026-05-08 14:13 | 15.96869 | -72.96555 | 37007 ft | 493 kts | 15° |
| 2026-05-08 14:14 | 16.03482 | -72.94674 | 37009 ft | 491 kts | 15° |
| 2026-05-08 14:14 | 16.10105 | -72.92790 | 37010 ft | 491 kts | 15° |
| 2026-05-08 14:15 | 16.16739 | -72.90901 | 37014 ft | 491 kts | 15° |
| 2026-05-08 14:15 | 16.23346 | -72.89019 | 37014 ft | 491 kts | 15° |
| 2026-05-08 14:16 | 16.29926 | -72.87139 | 37014 ft | 491 kts | 15° |
| 2026-05-08 14:16 | 16.36559 | -72.85239 | 37008 ft | 491 kts | 15° |
| 2026-05-08 14:17 | 16.43190 | -72.83338 | 37007 ft | 491 kts | 15° |
| 2026-05-08 14:17 | 16.49807 | -72.81440 | 37006 ft | 491 kts | 15° |
| 2026-05-08 14:18 | 16.56387 | -72.79552 | 37008 ft | 490 kts | 15° |
| 2026-05-08 14:18 | 16.62968 | -72.77661 | 37006 ft | 491 kts | 15° |
| 2026-05-08 14:19 | 16.69590 | -72.75758 | 37006 ft | 491 kts | 15° |
| 2026-05-08 14:19 | 16.76201 | -72.73856 | 37007 ft | 491 kts | 15° |
| 2026-05-08 14:20 | 16.82798 | -72.71957 | 37008 ft | 491 kts | 15° |
| 2026-05-08 14:20 | 16.89416 | -72.70052 | 37009 ft | 491 kts | 15° |
| 2026-05-08 14:21 | 16.96027 | -72.68146 | 37010 ft | 492 kts | 15° |
| 2026-05-08 14:21 | 17.02642 | -72.66547 | 36387 ft | 482 kts | 9° |
| 2026-05-08 14:21 | 17.05962 | -72.66008 | 35377 ft | 485 kts | 9° |
| 2026-05-08 14:22 | 17.09284 | -72.65479 | 34511 ft | 484 kts | 9° |
| 2026-05-08 14:22 | 17.12632 | -72.64944 | 33666 ft | 483 kts | 9° |
| 2026-05-08 14:22 | 17.15947 | -72.64412 | 32834 ft | 481 kts | 9° |
| 2026-05-08 14:22 | 17.19295 | -72.63874 | 32030 ft | 481 kts | 9° |
| 2026-05-08 14:23 | 17.22590 | -72.63343 | 31178 ft | 482 kts | 9° |
| 2026-05-08 14:23 | 17.25934 | -72.62804 | 30457 ft | 480 kts | 9° |
| 2026-05-08 14:23 | 17.29187 | -72.62279 | 30009 ft | 472 kts | 9° |
| 2026-05-08 14:23 | 17.32422 | -72.61755 | 29511 ft | 465 kts | 9° |
| 2026-05-08 14:24 | 17.35617 | -72.61239 | 28977 ft | 460 kts | 9° |
| 2026-05-08 14:24 | 17.38769 | -72.60729 | 28428 ft | 455 kts | 9° |
| 2026-05-08 14:24 | 17.41901 | -72.60221 | 27883 ft | 450 kts | 9° |
| 2026-05-08 14:24 | 17.44984 | -72.59721 | 27343 ft | 446 kts | 9° |
| 2026-05-08 14:25 | 17.48002 | -72.59232 | 26813 ft | 441 kts | 9° |
| 2026-05-08 14:25 | 17.51033 | -72.58740 | 26279 ft | 436 kts | 9° |
| 2026-05-08 14:25 | 17.54034 | -72.58253 | 25738 ft | 432 kts | 9° |
| 2026-05-08 14:25 | 17.56991 | -72.57773 | 25203 ft | 427 kts | 9° |
| 2026-05-08 14:26 | 17.59941 | -72.57294 | 24669 ft | 423 kts | 9° |
| 2026-05-08 14:26 | 17.62814 | -72.56827 | 24137 ft | 419 kts | 9° |
| 2026-05-08 14:26 | 17.65721 | -72.56355 | 23602 ft | 415 kts | 10° |
| 2026-05-08 14:26 | 17.68547 | -72.55895 | 23078 ft | 411 kts | 10° |
| 2026-05-08 14:27 | 17.71372 | -72.55435 | 22545 ft | 408 kts | 10° |
| 2026-05-08 14:27 | 17.74172 | -72.54980 | 22025 ft | 404 kts | 10° |
| 2026-05-08 14:27 | 17.76944 | -72.54529 | 21511 ft | 401 kts | 10° |
| 2026-05-08 14:27 | 17.79667 | -72.54085 | 20984 ft | 398 kts | 10° |
| 2026-05-08 14:28 | 17.82423 | -72.53636 | 20447 ft | 395 kts | 10° |
| 2026-05-08 14:28 | 17.85149 | -72.53192 | 19906 ft | 393 kts | 10° |
| 2026-05-08 14:28 | 17.87824 | -72.52736 | 19370 ft | 390 kts | 13° |
| 2026-05-08 14:28 | 17.90404 | -72.51933 | 18843 ft | 385 kts | 22° |
| 2026-05-08 14:29 | 17.92792 | -72.50693 | 18313 ft | 382 kts | 32° |
| 2026-05-08 14:29 | 17.94999 | -72.49160 | 17788 ft | 379 kts | 34° |
| 2026-05-08 14:29 | 17.97192 | -72.47585 | 17259 ft | 377 kts | 34° |
| 2026-05-08 14:29 | 17.99333 | -72.46044 | 16747 ft | 374 kts | 34° |
| 2026-05-08 14:30 | 18.01479 | -72.44499 | 16220 ft | 372 kts | 34° |
| 2026-05-08 14:30 | 18.03607 | -72.42966 | 15689 ft | 370 kts | 34° |
| 2026-05-08 14:30 | 18.05728 | -72.41438 | 15169 ft | 368 kts | 34° |
| 2026-05-08 14:30 | 18.07961 | -72.40126 | 14635 ft | 367 kts | 24° |
| 2026-05-08 14:31 | 18.10393 | -72.39280 | 14104 ft | 366 kts | 13° |
| 2026-05-08 14:31 | 18.12894 | -72.38935 | 13586 ft | 365 kts | 2° |
| 2026-05-08 14:31 | 18.15442 | -72.39092 | 13053 ft | 364 kts | 352° |
| 2026-05-08 14:32 | 18.20172 | -72.40852 | 11989 ft | 365 kts | 330° |
| 2026-05-08 14:32 | 18.22287 | -72.42345 | 11456 ft | 364 kts | 326° |
| 2026-05-08 14:32 | 18.24358 | -72.43900 | 11001 ft | 360 kts | 326° |
| 2026-05-08 14:32 | 18.26368 | -72.45412 | 10905 ft | 345 kts | 326° |
| 2026-05-08 14:33 | 18.28270 | -72.46840 | 10767 ft | 325 kts | 326° |
| 2026-05-08 14:33 | 18.30057 | -72.48180 | 10663 ft | 304 kts | 326° |
| 2026-05-08 14:33 | 18.31740 | -72.49438 | 10591 ft | 290 kts | 326° |
| 2026-05-08 14:33 | 18.33358 | -72.50646 | 10447 ft | 282 kts | 327° |
| 2026-05-08 14:34 | 18.34940 | -72.51828 | 10314 ft | 273 kts | 327° |
| 2026-05-08 14:34 | 18.36475 | -72.52974 | 10190 ft | 267 kts | 327° |
| 2026-05-08 14:34 | 18.38048 | -72.54147 | 9930 ft | 281 kts | 326° |
| 2026-05-08 14:34 | 18.39646 | -72.55341 | 9529 ft | 284 kts | 326° |
| 2026-05-08 14:35 | 18.41251 | -72.56541 | 9140 ft | 285 kts | 326° |
| 2026-05-08 14:35 | 18.42867 | -72.57751 | 8780 ft | 286 kts | 326° |
| 2026-05-08 14:35 | 18.44499 | -72.58971 | 8418 ft | 286 kts | 326° |
| 2026-05-08 14:35 | 18.46114 | -72.60180 | 8058 ft | 286 kts | 326° |
| 2026-05-08 14:36 | 18.47750 | -72.61404 | 7695 ft | 286 kts | 326° |
| 2026-05-08 14:36 | 18.49359 | -72.62608 | 7292 ft | 284 kts | 326° |
| 2026-05-08 14:36 | 18.50954 | -72.63803 | 6931 ft | 276 kts | 326° |
| 2026-05-08 14:36 | 18.52503 | -72.64964 | 6574 ft | 268 kts | 326° |
| 2026-05-08 14:37 | 18.54007 | -72.66089 | 6192 ft | 261 kts | 327° |
| 2026-05-08 14:37 | 18.55611 | -72.66854 | 5844 ft | 249 kts | 353° |
| 2026-05-08 14:37 | 18.57300 | -72.66777 | 5540 ft | 235 kts | 19° |
| 2026-05-08 14:37 | 18.58687 | -72.65994 | 5275 ft | 223 kts | 43° |
| 2026-05-08 14:38 | 18.59635 | -72.64768 | 5055 ft | 211 kts | 59° |
| 2026-05-08 14:38 | 18.60374 | -72.63448 | 4868 ft | 206 kts | 62° |
| 2026-05-08 14:38 | 18.60956 | -72.62080 | 4648 ft | 202 kts | 76° |
| 2026-05-08 14:38 | 18.61060 | -72.60627 | 4423 ft | 198 kts | 97° |
| 2026-05-08 14:39 | 18.60654 | -72.59276 | 4195 ft | 195 kts | 117° |
| 2026-05-08 14:39 | 18.59957 | -72.58035 | 3958 ft | 194 kts | 118° |
| 2026-05-08 14:39 | 18.59311 | -72.56792 | 3710 ft | 193 kts | 116° |
| 2026-05-08 14:39 | 18.58703 | -72.55545 | 3467 ft | 192 kts | 116° |
| 2026-05-08 14:40 | 18.58094 | -72.54283 | 3222 ft | 191 kts | 116° |
| 2026-05-08 14:40 | 18.57495 | -72.53046 | 2983 ft | 189 kts | 116° |
| 2026-05-08 14:40 | 18.56942 | -72.51801 | 2859 ft | 188 kts | 108° |
| 2026-05-08 14:40 | 18.56843 | -72.50429 | 2747 ft | 189 kts | 83° |
| 2026-05-08 14:41 | 18.56995 | -72.49046 | 2649 ft | 189 kts | 85° |
| 2026-05-08 14:41 | 18.57087 | -72.47664 | 2548 ft | 189 kts | 87° |
| 2026-05-08 14:41 | 18.57150 | -72.46293 | 2439 ft | 189 kts | 87° |
| 2026-05-08 14:41 | 18.57213 | -72.44918 | 2331 ft | 188 kts | 87° |
| 2026-05-08 14:42 | 18.57281 | -72.43527 | 2224 ft | 188 kts | 87° |
| 2026-05-08 14:42 | 18.57349 | -72.42158 | 2123 ft | 188 kts | 87° |
| 2026-05-08 14:42 | 18.57418 | -72.40791 | 1903 ft | 182 kts | 87° |
| 2026-05-08 14:42 | 18.57483 | -72.39505 | 1678 ft | 169 kts | 87° |
| 2026-05-08 14:43 | 18.57544 | -72.38309 | 1476 ft | 159 kts | 87° |
| 2026-05-08 14:43 | 18.57603 | -72.37152 | 1290 ft | 154 kts | 88° |
| 2026-05-08 14:43 | 18.57661 | -72.36025 | 1093 ft | 155 kts | 88° |
| 2026-05-08 14:43 | 18.57718 | -72.34898 | 901 ft | 151 kts | 88° |
| 2026-05-08 14:44 | 18.57774 | -72.33806 | 727 ft | 148 kts | 88° |
| 2026-05-08 14:44 | 18.57832 | -72.32722 | 537 ft | 148 kts | 88° |
| 2026-05-08 14:44 | 18.57892 | -72.31654 | 326 ft | 143 kts | 89° |
| 2026-05-08 14:44 | 18.57944 | -72.30594 | 194 ft | 148 kts | 90° |
| 2026-05-08 14:45 | 18.57988 | -72.29630 | 175 ft | 104 kts | 88° |
| 2026-05-08 14:45 | 18.58016 | -72.29037 | 182 ft | 64 kts | 87° |
| 2026-05-08 14:45 | 18.58035 | -72.28670 | 192 ft | 30 kts | 87° |
| 2026-05-08 14:45 | 18.58041 | -72.28548 | 194 ft | 6 kts | 88° |
| 2026-05-08 14:46 | 18.58042 | -72.28511 | 195 ft | 4 kts | 88° |
| 2026-05-08 14:46 | 18.58053 | -72.28473 | 196 ft | 6 kts | 54° |
| 2026-05-08 14:46 | 18.58075 | -72.28431 | 197 ft | 4 kts | 106° |
| 2026-05-08 14:46 | 18.58051 | -72.28434 | 197 ft | 5 kts | 238° |
| 2026-05-08 14:47 | 18.58044 | -72.28499 | 196 ft | 11 kts | 266° |
| 2026-05-08 14:47 | 18.58038 | -72.28608 | 193 ft | 17 kts | 266° |
| 2026-05-08 14:47 | 18.58030 | -72.28740 | 190 ft | 18 kts | 267° |
| 2026-05-08 14:47 | 18.58023 | -72.28886 | 185 ft | 20 kts | 267° |
| 2026-05-08 14:48 | 18.58017 | -72.29036 | 182 ft | 20 kts | 267° |
| 2026-05-08 14:48 | 18.58009 | -72.29185 | 179 ft | 20 kts | 266° |
| 2026-05-08 14:48 | 18.58002 | -72.29315 | 179 ft | 12 kts | 267° |
| 2026-05-08 14:48 | 18.57998 | -72.29402 | 177 ft | 12 kts | 266° |
| 2026-05-08 14:49 | 18.57958 | -72.29468 | 176 ft | 11 kts | 191° |
| 2026-05-08 14:49 | 18.57884 | -72.29466 | 178 ft | 9 kts | 176° |
| 2026-05-08 14:49 | 18.57824 | -72.29462 | 179 ft | 7 kts | 178° |
| 2026-05-08 14:49 | 18.57773 | -72.29460 | 180 ft | 7 kts | 179° |
| 2026-05-08 14:50 | 18.57719 | -72.29459 | 181 ft | 7 kts | 172° |
| 2026-05-08 14:50 | 18.57686 | -72.29422 | 181 ft | 7 kts | 100° |
| 2026-05-08 14:50 | 18.57685 | -72.29362 | 181 ft | 6 kts | 104° |
| 2026-05-08 14:50 | 18.57655 | -72.29340 | 182 ft | 2 kts | 162° |
| 2026-05-08 14:51 | 18.57644 | -72.29336 | 182 ft | 1 kts | 172° |
| 2026-05-08 14:51 | 18.57641 | -72.29336 | 182 ft | 0 kts | 172° |